EDT,Max TemperatureF,Mean TemperatureF,Min TemperatureF,Max Dew PointF,MeanDew PointF,Min DewpointF,Max Humidity, Mean Humidity, Min Humidity, Max Sea Level PressureIn, Mean Sea Level PressureIn, Min Sea Level PressureIn, Max VisibilityMiles, Mean VisibilityMiles, Min VisibilityMiles, Max Wind SpeedMPH, Mean Wind SpeedMPH, Max Gust SpeedMPH,PrecipitationIn, CloudCover, Events, WindDirDegrees
2013-8-1,85,76,66,68,66,64,97,74,51,30.02,29.96,29.90,10,6,2,14,4,17,0.04,6,Rain,299
2013-8-2,87,75,63,70,63,57,100,73,45,30.09,30.02,29.95,10,5,0,9,1,14,0.00,6,Fog,13
2013-8-3,84,74,63,67,64,61,93,72,51,30.02,29.99,29.96,10,10,9,15,5,18,T,5,,234
2013-8-4,84,75,66,70,65,55,97,69,40,30.08,30.01,29.95,10,7,1,12,5,15,0.14,6,Rain,280
2013-8-5,84,72,59,62,60,56,93,67,40,30.06,30.00,29.95,10,9,4,16,3,20,0.00,2,,271
2013-8-6,85,75,64,69,64,62,93,72,51,30.01,29.96,29.93,10,10,8,8,2,17,0.00,6,,181
2013-8-7,81,75,68,71,68,66,97,82,67,30.08,30.00,29.96,10,8,1,21,2,30,0.75,6,Rain-Thunderstorm,156
2013-8-8,81,75,68,72,69,66,97,83,69,30.07,30.00,29.96,10,8,2,12,2,14,T,7,,213
2013-8-9,87,78,68,75,70,67,100,79,57,30.12,30.02,29.97,10,8,1,13,3,16,0.05,6,Rain-Thunderstorm,270
2013-8-10,85,76,67,73,70,67,93,84,74,30.17,30.10,30.04,10,6,1,23,3,31,0.70,6,Rain-Thunderstorm,231
2013-8-11,85,76,67,71,68,66,100,81,61,30.21,30.14,30.03,10,6,0,13,3,16,T,7,Fog-Rain,230
2013-8-12,84,76,68,71,69,66,93,79,65,30.16,30.07,29.96,10,6,0,18,4,25,1.00,7,Fog-Rain-Thunderstorm,240
2013-8-13,80,74,67,71,68,63,100,86,71,30.02,29.92,29.84,10,6,1,21,5,26,1.57,7,Rain,269
2013-8-14,75,66,57,64,55,50,93,69,44,30.08,30.00,29.92,10,10,9,12,5,16,0.00,4,,357
2013-8-15,78,66,53,60,55,50,86,68,50,30.10,30.06,30.01,10,10,10,10,3,15,0.00,3,,126
2013-8-16,81,69,56,62,57,53,93,69,45,30.11,30.07,30.03,10,10,5,8,2,11,0.00,3,,96
2013-8-17,77,67,57,63,58,54,90,72,54,30.15,30.11,30.08,10,10,10,7,2,10,T,6,,57
2013-8-18,80,72,63,66,63,61,93,76,58,30.21,30.13,30.09,10,10,5,16,3,19,0.10,7,Rain,202
2013-8-19,80,73,66,67,65,61,93,74,54,30.20,30.12,30.04,10,10,8,7,1,10,0.06,7,Rain,127
2013-8-20,85,75,64,67,65,63,100,74,48,30.21,30.12,30.06,10,8,0,18,1,25,T,5,Fog-Thunderstorm,145
2013-8-21,82,74,65,70,66,64,93,78,62,30.23,30.16,30.10,10,8,2,10,2,13,T,6,,295
2013-8-22,85,76,67,68,66,63,93,71,48,30.23,30.12,30.01,10,6,1,13,3,16,0.00,6,,255
2013-8-23,84,75,65,69,66,64,100,78,55,30.14,30.05,29.99,10,5,0,22,3,28,0.18,6,Fog-Rain-Thunderstorm,270
2013-8-24,84,73,61,66,60,53,100,67,34,30.27,30.17,30.09,10,7,0,9,3,14,0.00,3,Fog,94
2013-8-25,83,68,53,59,54,47,93,62,30,30.37,30.30,30.25,10,10,8,8,3,11,0.00,2,,28
2013-8-26,83,70,56,64,59,54,93,70,47,30.31,30.23,30.12,10,8,3,10,2,15,0.00,2,,25
2013-8-27,84,73,61,69,64,60,100,81,62,30.19,30.11,30.01,10,5,0,9,2,13,0.00,6,Fog,213
2013-8-28,88,77,66,69,67,64,100,74,48,30.10,30.01,29.94,10,5,0,16,4,20,0.00,5,Fog,242
2013-8-29,90,79,68,70,68,64,90,68,46,30.06,29.95,29.90,10,8,6,10,2,14,T,5,,268
2013-8-30,90,78,65,68,66,62,93,67,41,30.04,29.95,29.88,10,7,2,12,2,16,0.00,3,,275
2013-8-31,85,77,68,73,69,65,90,78,65,30.01,29.93,29.86,10,7,2,13,5,20,0.11,7,Rain-Thunderstorm,211